Time;durP1;ratioP1;P1;durP2;ratioP2;P2;SDS_P1;SDS_P2;PMS_P1;PMS_P2;Temp;Humidity;BMP_temperature;BMP_pressure;BME280_temperature;BME280_humidity;BME280_pressure;Samples;Min_cycle;Max_cycle;Signal;HPM_P1;HPM_P2
2022/11/21 00:01:00;;;;;;;26.85;17.48;;;1.80;99.90;;;;;;7378036;19;20392;-46
2022/11/21 00:03:26;;;;;;;26.20;18.30;;;1.80;99.90;;;;;;7375025;19;20626;-50
2022/11/21 00:05:52;;;;;;;22.95;17.52;;;1.90;99.90;;;;;;7366914;19;20022;-47
2022/11/21 00:08:20;;;;;;;25.13;18.45;;;1.80;99.90;;;;;;7373646;19;20014;-48
2022/11/21 00:10:47;;;;;;;24.80;18.67;;;1.80;99.90;;;;;;7372382;19;20015;-50
2022/11/21 00:13:19;;;;;;;24.60;19.08;;;1.80;99.90;;;;;;7374128;19;20715;-50
2022/11/21 00:15:47;;;;;;;25.90;17.98;;;1.80;99.90;;;;;;7373290;19;20368;-46
2022/11/21 00:18:14;;;;;;;25.52;17.73;;;1.80;99.90;;;;;;7366793;19;20019;-49
2022/11/21 00:20:43;;;;;;;27.17;18.90;;;1.80;99.90;;;;;;7371220;19;20032;-50
2022/11/21 00:23:10;;;;;;;25.45;17.08;;;1.80;99.90;;;;;;7369261;19;20378;-46
2022/11/21 00:25:37;;;;;;;22.73;16.38;;;1.80;99.90;;;;;;7375421;19;20028;-49
2022/11/21 00:28:05;;;;;;;23.83;17.27;;;1.80;99.90;;;;;;7378734;19;20478;-50
2022/11/21 00:30:31;;;;;;;27.48;17.45;;;1.80;99.90;;;;;;7375273;19;20019;-49
2022/11/21 00:32:58;;;;;;;23.50;17.70;;;1.70;99.90;;;;;;7376678;19;20120;-51
2022/11/21 00:35:24;;;;;;;26.17;17.98;;;1.70;99.90;;;;;;7377055;19;20029;-48
2022/11/21 00:37:51;;;;;;;27.88;18.33;;;1.70;99.90;;;;;;7378408;19;20025;-46
2022/11/21 00:40:18;;;;;;;25.98;18.05;;;1.70;99.90;;;;;;7369454;19;20049;-47
2022/11/21 00:42:44;;;;;;;26.48;18.38;;;1.60;99.90;;;;;;7378886;19;20101;-47
2022/11/21 00:45:11;;;;;;;25.20;17.60;;;1.50;99.90;;;;;;7377349;19;20019;-48
2022/11/21 00:47:37;;;;;;;25.95;17.83;;;1.50;99.90;;;;;;7378138;19;20022;-47
2022/11/21 00:50:04;;;;;;;24.63;17.50;;;1.50;99.90;;;;;;7375672;19;20025;-47
2022/11/21 00:52:30;;;;;;;25.65;18.13;;;1.50;99.90;;;;;;7376907;19;20375;-48
2022/11/21 00:54:57;;;;;;;26.63;19.25;;;1.50;99.90;;;;;;7375659;19;20019;-49
2022/11/21 00:57:23;;;;;;;27.27;19.23;;;1.50;99.90;;;;;;7376827;19;20015;-47
2022/11/21 00:59:49;;;;;;;24.77;17.55;;;1.50;99.90;;;;;;7374981;19;20030;-48
2022/11/21 01:02:16;;;;;;;31.80;19.75;;;1.50;99.90;;;;;;7378384;19;20027;-51
2022/11/21 01:04:43;;;;;;;25.30;18.25;;;1.50;99.90;;;;;;7376770;19;20038;-45
2022/11/21 01:07:11;;;;;;;31.33;19.35;;;1.50;99.90;;;;;;7378603;19;20367;-48
2022/11/21 01:09:38;;;;;;;27.38;18.98;;;1.50;99.90;;;;;;7376954;19;20489;-49
2022/11/21 01:12:05;;;;;;;28.67;20.05;;;1.60;99.90;;;;;;7375674;19;20437;-46
2022/11/21 01:14:31;;;;;;;31.65;20.02;;;1.60;99.90;;;;;;7378322;19;20461;-49
2022/11/21 01:17:00;;;;;;;28.45;18.52;;;1.60;99.90;;;;;;7379505;19;20473;-51
2022/11/21 01:19:27;;;;;;;27.13;19.52;;;1.60;99.90;;;;;;7376432;19;20048;-50
2022/11/21 01:21:54;;;;;;;28.48;20.00;;;1.70;99.90;;;;;;7370193;19;20026;-46
2022/11/21 01:24:20;;;;;;;26.70;18.25;;;1.60;99.90;;;;;;7374368;19;20905;-48
2022/11/21 01:26:49;;;;;;;27.55;18.50;;;1.70;99.90;;;;;;7377835;19;20029;-47
2022/11/21 01:29:16;;;;;;;24.67;17.48;;;1.60;99.90;;;;;;7378746;19;20028;-46
2022/11/21 01:31:42;;;;;;;25.23;18.48;;;1.70;99.90;;;;;;7376831;19;20014;-53
2022/11/21 01:34:09;;;;;;;25.48;17.33;;;1.70;99.90;;;;;;7378304;19;20023;-47
2022/11/21 01:36:36;;;;;;;26.52;18.48;;;1.60;99.90;;;;;;7385726;19;20019;-46
2022/11/21 01:39:05;;;;;;;26.90;19.77;;;1.60;99.90;;;;;;7387246;19;20493;-50
2022/11/21 01:41:43;;;;;;;25.27;19.00;;;1.60;99.90;;;;;;7379858;19;20513;-47
2022/11/21 01:44:16;;;;;;;25.42;20.27;;;1.60;99.90;;;;;;7385565;19;20018;-47
2022/11/21 01:46:44;;;;;;;28.85;19.52;;;1.60;99.90;;;;;;7383415;19;20015;-48
2022/11/21 01:49:22;;;;;;;28.73;19.52;;;1.60;99.90;;;;;;7383303;19;20018;-48
2022/11/21 01:52:17;;;;;;;26.20;18.13;;;1.60;99.90;;;;;;7382148;19;20018;-47
2022/11/21 01:55:11;;;;;;;26.00;17.85;;;1.60;99.90;;;;;;7382294;19;20455;-49
2022/11/21 01:57:42;;;;;;;27.17;17.35;;;1.60;99.90;;;;;;7381939;19;20021;-51
2022/11/21 02:00:23;;;;;;;24.77;18.33;;;1.60;99.90;;;;;;7383899;19;20510;-48
2022/11/21 02:02:56;;;;;;;25.55;18.52;;;1.60;99.90;;;;;;7383883;19;20029;-49
2022/11/21 02:05:29;;;;;;;26.77;18.85;;;1.50;99.90;;;;;;7380828;19;20019;-48
2022/11/21 02:08:06;;;;;;;27.58;18.88;;;1.50;99.90;;;;;;7377713;19;20022;-51
2022/11/21 02:10:35;;;;;;;27.27;18.42;;;1.60;99.90;;;;;;7372807;19;20094;-50
2022/11/21 02:13:02;;;;;;;28.85;19.98;;;1.50;99.90;;;;;;7378750;19;20465;-51
2022/11/21 02:15:29;;;;;;;29.92;20.15;;;1.60;99.90;;;;;;7380254;19;20018;-50
2022/11/21 02:17:56;;;;;;;25.27;17.88;;;1.60;99.90;;;;;;7383467;19;20022;-49
2022/11/21 02:20:26;;;;;;;25.45;18.02;;;1.60;99.90;;;;;;7379612;19;20494;-51
2022/11/21 02:23:15;;;;;;;28.52;19.13;;;1.50;99.90;;;;;;7383309;19;20037;-50
2022/11/21 02:25:42;;;;;;;27.25;17.90;;;1.60;99.90;;;;;;7382284;19;20474;-47
2022/11/21 02:28:12;;;;;;;27.15;20.30;;;1.60;99.90;;;;;;7381090;19;20022;-51
2022/11/21 02:30:40;;;;;;;28.77;19.35;;;1.50;99.90;;;;;;7382621;19;20018;-47
2022/11/21 02:33:07;;;;;;;26.98;19.90;;;1.60;99.90;;;;;;7379441;19;20569;-49
2022/11/21 02:35:33;;;;;;;22.77;17.15;;;1.50;99.90;;;;;;7376914;19;20489;-48
2022/11/21 02:38:02;;;;;;;24.85;17.77;;;1.50;99.90;;;;;;7373698;19;20041;-46
2022/11/21 02:40:35;;;;;;;26.25;18.15;;;1.40;99.90;;;;;;7373101;19;20018;-47
2022/11/21 02:43:22;;;;;;;27.40;17.77;;;1.40;99.90;;;;;;7378130;19;20544;-51
2022/11/21 02:45:48;;;;;;;23.80;17.45;;;1.30;99.90;;;;;;7377628;19;20457;-50
2022/11/21 02:48:15;;;;;;;25.02;18.05;;;1.20;99.90;;;;;;7373648;19;20355;-49
2022/11/21 02:50:44;;;;;;;26.33;19.17;;;1.10;99.90;;;;;;7382484;19;20030;-50
2022/11/21 02:53:16;;;;;;;27.10;18.60;;;1.00;99.90;;;;;;7380488;19;20018;-47
2022/11/21 02:55:42;;;;;;;;;;;0.90;99.90;;;;;;7377812;19;20081;-46
2022/11/21 02:58:09;;;;;;;28.92;17.90;;;0.80;99.90;;;;;;7379258;19;20017;-53
2022/11/21 03:00:36;;;;;;;28.63;20.02;;;0.80;99.90;;;;;;7380334;19;20041;-51
2022/11/21 03:03:03;;;;;;;27.08;18.08;;;0.70;99.90;;;;;;7382206;19;20120;-48
2022/11/21 03:05:30;;;;;;;26.52;19.50;;;0.70;99.90;;;;;;7379849;19;20370;-47
2022/11/21 03:07:57;;;;;;;28.08;19.13;;;0.60;99.90;;;;;;7380273;19;20019;-49
2022/11/21 03:10:24;;;;;;;27.30;18.98;;;0.50;99.90;;;;;;7377119;19;20093;-46
2022/11/21 03:12:59;;;;;;;26.83;18.48;;;0.50;99.90;;;;;;7376166;19;20014;-47
2022/11/21 03:15:28;;;;;;;27.25;18.13;;;0.40;99.90;;;;;;7377481;19;20014;-46
2022/11/21 03:17:55;;;;;;;26.30;18.52;;;0.40;99.90;;;;;;7382552;19;20020;-47
2022/11/21 03:20:23;;;;;;;29.42;19.98;;;0.30;99.90;;;;;;7375612;19;20026;-48
2022/11/21 03:22:49;;;;;;;30.98;20.80;;;0.20;99.90;;;;;;7374079;19;20482;-49
2022/11/21 03:25:19;;;;;;;27.15;19.23;;;0.30;99.90;;;;;;7378672;19;20010;-49
2022/11/21 03:27:45;;;;;;;28.15;20.23;;;0.20;99.90;;;;;;7379721;19;20046;-48
2022/11/21 03:30:12;;;;;;;30.98;20.17;;;0.30;99.90;;;;;;7375722;19;20026;-46
2022/11/21 03:32:39;;;;;;;28.75;19.02;;;0.20;99.90;;;;;;7376164;19;20072;-47
2022/11/21 03:35:06;;;;;;;29.30;20.60;;;0.20;99.90;;;;;;7377097;19;20043;-48
2022/11/21 03:37:32;;;;;;;29.15;20.02;;;0.20;99.90;;;;;;7378708;19;20616;-47
2022/11/21 03:39:59;;;;;;;26.80;19.13;;;0.20;99.90;;;;;;7379414;19;20022;-46
2022/11/21 03:42:27;;;;;;;29.98;20.08;;;0.10;99.90;;;;;;7376688;19;20018;-46
2022/11/21 03:44:53;;;;;;;27.15;18.63;;;0.10;99.90;;;;;;7378441;19;20026;-48
2022/11/21 03:47:19;;;;;;;28.02;19.52;;;0.10;99.90;;;;;;7375731;19;20553;-48
2022/11/21 03:49:45;;;;;;;30.90;20.83;;;0.10;99.90;;;;;;7377880;19;20026;-46
2022/11/21 03:52:12;;;;;;;25.80;19.10;;;-0.10;99.90;;;;;;7378701;19;20109;-45
2022/11/21 03:54:39;;;;;;;30.98;19.77;;;-0.20;99.90;;;;;;7378652;19;20366;-49
2022/11/21 03:57:05;;;;;;;34.90;19.85;;;-0.20;99.90;;;;;;7375049;19;20045;-48
2022/11/21 03:59:31;;;;;;;30.65;21.83;;;-0.30;99.90;;;;;;7369429;19;20014;-50
2022/11/21 04:01:57;;;;;;;32.15;20.50;;;-0.30;99.90;;;;;;7370361;19;20458;-47
2022/11/21 04:04:24;;;;;;;32.67;20.08;;;-0.40;99.90;;;;;;7370233;19;20018;-47
2022/11/21 04:06:50;;;;;;;29.80;20.95;;;-0.40;99.90;;;;;;7368572;19;20018;-46
2022/11/21 04:09:17;;;;;;;28.60;20.40;;;-0.50;99.90;;;;;;7369054;19;20524;-51
2022/11/21 04:11:43;;;;;;;28.75;18.90;;;-0.40;99.90;;;;;;7371258;19;20054;-47
2022/11/21 04:14:10;;;;;;;29.05;20.25;;;-0.40;99.90;;;;;;7370012;19;20032;-49
2022/11/21 04:16:36;;;;;;;26.85;17.20;;;-0.50;99.90;;;;;;7369092;19;20024;-50
2022/11/21 04:19:02;;;;;;;27.70;18.92;;;-0.60;99.90;;;;;;7371226;19;20084;-48
2022/11/21 04:21:30;;;;;;;27.80;18.48;;;-0.60;99.90;;;;;;7370450;19;20085;-50
2022/11/21 04:23:56;;;;;;;30.13;18.85;;;-0.60;99.90;;;;;;7370599;19;20066;-49
2022/11/21 04:26:22;;;;;;;29.90;20.70;;;-0.60;99.90;;;;;;7371516;19;20022;-48
2022/11/21 04:28:48;;;;;;;29.00;19.52;;;-0.60;99.90;;;;;;7370933;19;20042;-47
2022/11/21 04:31:15;;;;;;;29.08;19.23;;;-0.60;99.90;;;;;;7374084;19;20026;-48
2022/11/21 04:33:42;;;;;;;30.15;20.55;;;-0.60;99.90;;;;;;7378624;19;20105;-49
2022/11/21 04:36:08;;;;;;;29.70;21.83;;;-0.60;99.90;;;;;;7374699;19;20025;-47
2022/11/21 04:38:35;;;;;;;31.10;21.90;;;-0.60;99.90;;;;;;7375965;19;20031;-44
2022/11/21 04:41:02;;;;;;;31.95;19.80;;;-0.60;99.90;;;;;;7374917;19;20424;-46
2022/11/21 04:43:28;;;;;;;29.63;19.05;;;-0.60;99.90;;;;;;7376587;19;20022;-48
2022/11/21 04:45:54;;;;;;;31.42;21.70;;;-0.60;99.90;;;;;;7374002;19;20019;-47
2022/11/21 04:48:20;;;;;;;28.08;21.42;;;-0.60;99.90;;;;;;7376563;19;20019;-49
2022/11/21 04:50:47;;;;;;;29.65;19.92;;;-0.70;99.90;;;;;;7376135;19;20019;-50
2022/11/21 04:53:13;;;;;;;30.73;21.17;;;-0.60;99.90;;;;;;7374645;19;20117;-48
2022/11/21 04:55:40;;;;;;;31.52;20.77;;;-0.80;99.90;;;;;;7373337;19;20090;-45
2022/11/21 04:58:07;;;;;;;30.75;19.90;;;-0.80;99.90;;;;;;7373827;19;20582;-49
2022/11/21 05:00:34;;;;;;;28.77;19.80;;;-0.80;99.90;;;;;;7377838;19;20514;-48
2022/11/21 05:03:02;;;;;;;28.60;19.05;;;-0.80;99.90;;;;;;7375498;19;20019;-47
2022/11/21 05:05:29;;;;;;;27.42;18.48;;;-0.90;99.90;;;;;;7376410;19;20454;-48
2022/11/21 05:07:55;;;;;;;28.95;20.58;;;-0.90;99.90;;;;;;7376006;19;20039;-48
2022/11/21 05:10:21;;;;;;;27.13;18.83;;;-0.90;99.90;;;;;;7383387;19;21111;-49
2022/11/21 05:15:41;;;;;;;34.10;21.45;;;-1.00;99.90;;;;;;7376764;19;20029;-50
2022/11/21 05:18:07;;;;;;;27.67;19.90;;;-1.00;99.90;;;;;;7376483;19;20460;-51
2022/11/21 05:20:34;;;;;;;30.98;20.35;;;-1.10;99.90;;;;;;7375546;19;20014;-47
2022/11/21 05:23:01;;;;;;;28.33;19.92;;;-1.10;99.90;;;;;;7377072;19;20039;-47
2022/11/21 05:25:27;;;;;;;30.75;20.15;;;-1.10;99.90;;;;;;7382042;19;20038;-45
2022/11/21 05:27:56;;;;;;;33.13;21.48;;;-1.10;99.90;;;;;;7380293;19;20413;-47
2022/11/21 05:30:23;;;;;;;28.48;18.65;;;-1.10;99.90;;;;;;7378497;19;20018;-48
2022/11/21 05:32:50;;;;;;;27.27;19.35;;;-1.10;99.90;;;;;;7377657;19;20919;-51
2022/11/21 05:35:17;;;;;;;31.90;20.00;;;-1.20;99.90;;;;;;7377659;19;20413;-47
2022/11/21 05:37:45;;;;;;;28.30;19.67;;;-1.20;99.90;;;;;;7377787;19;20026;-47
2022/11/21 05:40:11;;;;;;;29.95;19.88;;;-1.20;99.90;;;;;;7375720;19;20042;-48
2022/11/21 05:45:31;;;;;;;28.42;19.65;;;-1.20;99.90;;;;;;7376417;19;20033;-47
2022/11/21 05:47:58;;;;;;;27.92;20.65;;;-1.20;99.90;;;;;;7374398;19;20022;-51
2022/11/21 05:50:24;;;;;;;29.52;19.75;;;-1.20;99.90;;;;;;7368843;19;20018;-52
2022/11/21 05:52:50;;;;;;;31.48;20.10;;;-1.20;99.90;;;;;;7376089;19;20019;-48
2022/11/21 05:55:17;;;;;;;27.92;18.92;;;-1.20;99.90;;;;;;7371340;19;20021;-49
2022/11/21 05:57:43;;;;;;;28.85;19.70;;;-1.20;99.90;;;;;;7374870;19;20015;-50
2022/11/21 06:00:13;;;;;;;27.42;19.35;;;-1.30;99.90;;;;;;7374647;19;21369;-50
2022/11/21 06:05:25;;;;;;;31.02;20.58;;;-1.30;99.90;;;;;;7374485;19;20024;-51
2022/11/21 06:07:51;;;;;;;33.50;20.95;;;-1.30;99.90;;;;;;7374989;19;20014;-50
2022/11/21 06:10:19;;;;;;;36.42;21.92;;;-1.30;99.90;;;;;;7371066;19;20019;-51
2022/11/21 06:12:46;;;;;;;34.55;24.25;;;-1.30;99.90;;;;;;7369759;19;20018;-48
2022/11/21 06:15:13;;;;;;;39.30;24.42;;;-1.20;99.90;;;;;;7377007;19;20042;-50
2022/11/21 06:17:39;;;;;;;40.75;24.17;;;-1.20;99.90;;;;;;7376484;19;20033;-45
2022/11/21 06:20:07;;;;;;;39.15;24.30;;;-1.20;99.90;;;;;;7381278;19;20023;-47
2022/11/21 06:22:34;;;;;;;36.08;23.33;;;-1.30;99.90;;;;;;7375757;19;20514;-51
2022/11/21 06:25:01;;;;;;;37.58;24.50;;;-1.30;99.90;;;;;;7377884;19;20022;-47
2022/11/21 06:27:28;;;;;;;39.35;24.58;;;-1.30;99.90;;;;;;7376096;19;20089;-49
2022/11/21 06:29:55;;;;;;;30.98;20.60;;;-1.30;99.90;;;;;;7376802;19;20533;-48
2022/11/21 06:32:21;;;;;;;34.08;23.23;;;-1.30;99.90;;;;;;7374844;19;20398;-49
2022/11/21 06:34:48;;;;;;;38.35;26.20;;;-1.30;99.90;;;;;;7376923;19;20602;-48
2022/11/21 06:37:15;;;;;;;37.60;25.23;;;-1.30;99.90;;;;;;7377587;19;20086;-47
2022/11/21 06:39:41;;;;;;;41.60;24.30;;;-1.30;99.90;;;;;;7381076;19;20018;-50
2022/11/21 06:42:07;;;;;;;37.30;24.77;;;-1.30;99.90;;;;;;7375068;19;20086;-49
2022/11/21 06:44:34;;;;;;;39.97;24.55;;;-1.30;99.90;;;;;;7378532;19;20018;-47
2022/11/21 06:47:00;;;;;;;36.55;23.52;;;-1.30;99.90;;;;;;7381687;19;20018;-46
2022/11/21 06:49:27;;;;;;;33.42;22.77;;;-1.40;99.90;;;;;;7380670;19;20497;-49
2022/11/21 06:51:53;;;;;;;35.80;24.02;;;-1.40;99.90;;;;;;7374073;19;20022;-48
2022/11/21 06:54:20;;;;;;;36.13;22.75;;;-1.40;99.90;;;;;;7375739;19;20175;-47
2022/11/21 06:56:46;;;;;;;36.33;23.67;;;-1.40;99.90;;;;;;7372055;19;20021;-47
2022/11/21 06:59:13;;;;;;;40.08;26.38;;;-1.40;99.90;;;;;;7376113;19;20018;-49
2022/11/21 07:01:40;;;;;;;38.38;25.30;;;-1.40;99.90;;;;;;7376744;19;21267;-46
2022/11/21 07:04:06;;;;;;;37.47;24.10;;;-1.40;99.90;;;;;;7379803;19;20023;-47
2022/11/21 07:06:34;;;;;;;42.70;24.95;;;-1.40;99.90;;;;;;7376797;19;20062;-44
2022/11/21 07:09:00;;;;;;;36.40;23.90;;;-1.40;99.90;;;;;;7380977;19;20015;-45
2022/11/21 07:11:27;;;;;;;35.85;23.80;;;-1.40;99.90;;;;;;7380260;19;20391;-47
2022/11/21 07:13:53;;;;;;;39.80;25.27;;;-1.50;99.90;;;;;;7378958;19;20042;-46
2022/11/21 07:16:20;;;;;;;35.60;23.52;;;-1.40;99.90;;;;;;7378282;19;20081;-45
2022/11/21 07:18:46;;;;;;;39.30;24.98;;;-1.40;99.90;;;;;;7379243;19;20478;-46
2022/11/21 07:21:13;;;;;;;38.13;26.00;;;-1.30;99.90;;;;;;7381631;19;20022;-45
2022/11/21 07:23:39;;;;;;;40.30;26.33;;;-1.30;99.90;;;;;;7379065;19;20480;-47
2022/11/21 07:26:08;;;;;;;44.20;26.42;;;-1.30;99.90;;;;;;7381925;19;20018;-45
2022/11/21 07:28:35;;;;;;;41.42;26.92;;;-1.30;99.90;;;;;;7380549;19;20014;-47
2022/11/21 07:31:02;;;;;;;36.53;23.48;;;-1.20;99.90;;;;;;7382452;19;20485;-45
2022/11/21 07:33:29;;;;;;;36.03;23.35;;;-1.20;99.90;;;;;;7382855;19;20022;-47
2022/11/21 07:35:56;;;;;;;35.33;23.70;;;-1.20;99.90;;;;;;7384348;19;20030;-46
2022/11/21 07:38:25;;;;;;;34.60;22.42;;;-1.20;99.90;;;;;;7377103;19;20021;-48
2022/11/21 07:40:52;;;;;;;32.80;23.05;;;-1.20;99.90;;;;;;7378952;19;20037;-47
2022/11/21 07:43:18;;;;;;;37.95;23.50;;;-1.20;99.90;;;;;;7381316;19;20632;-47
2022/11/21 07:45:45;;;;;;;33.67;22.58;;;-1.10;99.90;;;;;;7379293;19;20014;-47
2022/11/21 07:48:12;;;;;;;33.67;23.25;;;-1.00;99.90;;;;;;7377390;19;20101;-46
2022/11/21 07:50:38;;;;;;;36.88;22.52;;;-1.00;99.90;;;;;;7377602;19;20124;-46
2022/11/21 07:53:08;;;;;;;37.20;23.98;;;-0.90;99.90;;;;;;7378091;19;20018;-45
2022/11/21 07:55:34;;;;;;;37.88;23.38;;;-0.80;99.90;;;;;;7371110;19;20028;-46
2022/11/21 07:58:04;;;;;;;37.13;23.27;;;-0.70;99.90;;;;;;7376013;19;20101;-49
2022/11/21 08:00:33;;;;;;;40.00;23.92;;;-0.70;99.90;;;;;;7376509;19;20906;-44
2022/11/21 08:03:06;;;;;;;35.83;23.90;;;-0.60;99.90;;;;;;7371048;19;20015;-44
2022/11/21 08:05:36;;;;;;;37.80;24.48;;;-0.60;99.90;;;;;;7372517;19;20029;-47
2022/11/21 08:08:04;;;;;;;36.95;24.10;;;-0.50;99.90;;;;;;7373272;19;20026;-48
2022/11/21 08:10:31;;;;;;;29.52;20.50;;;-0.50;99.90;;;;;;7377301;19;20378;-48
2022/11/21 08:12:58;;;;;;;32.65;22.50;;;-0.50;99.90;;;;;;7373866;19;20018;-46
2022/11/21 08:15:24;;;;;;;30.55;20.73;;;-0.40;99.90;;;;;;7378384;19;20014;-48
2022/11/21 08:17:51;;;;;;;35.67;23.52;;;-0.40;99.90;;;;;;7377836;19;20018;-46
2022/11/21 08:20:17;;;;;;;32.03;22.05;;;-0.30;99.90;;;;;;7371414;19;20363;-47
2022/11/21 08:22:47;;;;;;;36.15;22.20;;;-0.20;99.90;;;;;;7377630;19;20563;-48
2022/11/21 08:25:13;;;;;;;37.15;24.88;;;-0.10;99.90;;;;;;7375217;19;20101;-48
2022/11/21 08:27:41;;;;;;;35.83;22.80;;;0.40;99.90;;;;;;7373337;19;20018;-47
2022/11/21 08:30:09;;;;;;;31.52;22.75;;;0.70;99.90;;;;;;7373617;19;20022;-50
2022/11/21 08:32:36;;;;;;;29.83;21.55;;;0.90;99.90;;;;;;7374086;19;20014;-47
2022/11/21 08:35:02;;;;;;;31.40;22.80;;;1.00;99.90;;;;;;7371917;19;20018;-47
2022/11/21 08:37:32;;;;;;;30.50;22.33;;;1.00;99.90;;;;;;7374725;19;20022;-46
2022/11/21 08:39:59;;;;;;;35.08;23.30;;;1.00;99.90;;;;;;7372747;19;20015;-50
2022/11/21 08:42:26;;;;;;;33.30;21.45;;;1.00;99.90;;;;;;7375460;19;20556;-48
2022/11/21 08:44:53;;;;;;;36.03;23.35;;;1.00;99.90;;;;;;7379286;19;20838;-47
2022/11/21 08:47:20;;;;;;;30.45;22.35;;;1.00;99.90;;;;;;7384744;19;20022;-46
2022/11/21 08:49:47;;;;;;;31.90;22.23;;;1.10;99.90;;;;;;7382147;19;20023;-48
2022/11/21 08:52:16;;;;;;;34.47;23.08;;;1.10;99.90;;;;;;7385309;19;20022;-45
2022/11/21 08:54:43;;;;;;;35.25;23.35;;;1.10;99.90;;;;;;7383273;19;20589;-49
2022/11/21 08:57:10;;;;;;;35.17;22.10;;;1.20;99.90;;;;;;7380100;19;20018;-49
2022/11/21 08:59:36;;;;;;;32.05;23.30;;;1.30;99.90;;;;;;7378947;19;20082;-46
2022/11/21 09:02:03;;;;;;;34.47;22.38;;;1.30;99.90;;;;;;7374803;19;20482;-48
2022/11/21 09:04:31;;;;;;;31.98;22.55;;;1.40;99.90;;;;;;7382549;19;20026;-49
2022/11/21 09:06:57;;;;;;;35.45;22.75;;;1.40;99.90;;;;;;7380232;19;20519;-47
2022/11/21 09:09:24;;;;;;;34.60;23.30;;;1.30;99.90;;;;;;7379877;19;20135;-47
2022/11/21 09:11:51;;;;;;;38.08;23.27;;;1.30;99.90;;;;;;7378176;19;20052;-49
2022/11/21 09:19:48;;;;;;;36.40;24.42;;;1.30;99.90;;;;;;7381330;19;20019;-46
2022/11/21 09:22:14;;;;;;;32.20;22.60;;;1.30;99.90;;;;;;7372724;19;20014;-47
2022/11/21 09:24:41;;;;;;;31.75;21.58;;;1.30;99.90;;;;;;7381963;19;20021;-48
2022/11/21 09:27:08;;;;;;;31.88;21.60;;;1.30;99.90;;;;;;7379442;19;20033;-48
2022/11/21 09:29:35;;;;;;;31.98;20.15;;;1.20;99.90;;;;;;7379177;19;20010;-45
2022/11/21 09:32:02;;;;;;;26.52;17.35;;;1.20;99.90;;;;;;7379685;19;20468;-48
2022/11/21 09:34:30;;;;;;;27.75;18.45;;;1.10;99.90;;;;;;7380075;19;20019;-48
2022/11/21 09:36:57;;;;;;;27.67;19.25;;;1.00;99.90;;;;;;7377396;19;20376;-50
2022/11/21 09:39:24;;;;;;;29.40;18.58;;;1.00;99.90;;;;;;7376672;19;20026;-48
2022/11/21 09:42:09;;;;;;;31.40;17.83;;;1.00;99.90;;;;;;7375552;19;20019;-50
2022/11/21 09:44:57;;;;;;;26.35;17.08;;;1.00;99.90;;;;;;7378054;19;20033;-51
2022/11/21 09:47:29;;;;;;;27.55;16.77;;;1.00;99.90;;;;;;7378566;19;20010;-50
2022/11/21 09:50:12;;;;;;;27.60;17.70;;;1.00;99.90;;;;;;7378613;19;20019;-47
2022/11/21 09:52:48;;;;;;;31.35;19.60;;;1.00;99.90;;;;;;7375738;19;20018;-47
2022/11/21 09:55:42;;;;;;;33.10;20.10;;;1.10;99.90;;;;;;7378021;19;20120;-50
2022/11/21 09:58:31;;;;;;;26.77;16.75;;;1.10;99.90;;;;;;7377628;19;20018;-49
2022/11/21 10:00:58;;;;;;;31.58;18.77;;;1.10;99.90;;;;;;7377749;19;20014;-51
2022/11/21 10:03:37;;;;;;;29.40;19.60;;;1.10;99.90;;;;;;7377261;19;20015;-52
2022/11/21 10:06:17;;;;;;;27.40;19.17;;;1.20;99.90;;;;;;7377128;19;20021;-49
2022/11/21 10:08:56;;;;;;;30.25;19.23;;;1.20;99.90;;;;;;7376306;19;20027;-49
2022/11/21 10:14:45;;;;;;;31.05;20.35;;;1.30;99.90;;;;;;7376425;19;20010;-47
2022/11/21 10:17:43;;;;;;;32.20;19.30;;;1.30;99.90;;;;;;7374643;19;20018;-49
2022/11/21 10:20:35;;;;;;;30.63;18.15;;;1.40;99.90;;;;;;7376799;19;20014;-50
2022/11/21 10:23:23;;;;;;;27.15;17.75;;;1.50;99.90;;;;;;7372020;19;20022;-46
2022/11/21 10:25:56;;;;;;;25.85;17.67;;;1.50;99.90;;;;;;7374349;19;20022;-47
2022/11/21 10:28:53;;;;;;;28.25;17.27;;;1.50;99.90;;;;;;7373421;19;20023;-48
2022/11/21 10:31:21;;;;;;;26.73;18.13;;;1.60;99.90;;;;;;7375617;19;20026;-50
2022/11/21 10:33:50;;;;;;;29.88;18.50;;;1.70;99.90;;;;;;7373267;19;20018;-48
2022/11/21 10:36:32;;;;;;;28.40;19.92;;;1.80;99.90;;;;;;7376945;19;20483;-49
2022/11/21 10:39:33;;;;;;;26.25;18.45;;;1.80;99.90;;;;;;7378075;19;20537;-49
2022/11/21 10:42:34;;;;;;;28.35;18.90;;;1.80;99.90;;;;;;7372310;19;20038;-49
2022/11/21 10:45:18;;;;;;;26.48;17.33;;;1.90;99.90;;;;;;7369709;19;20592;-49
2022/11/21 10:47:50;;;;;;;23.77;17.45;;;2.10;99.90;;;;;;7381948;19;20450;-52
2022/11/21 10:51:03;;;;;;;26.75;18.77;;;2.20;99.90;;;;;;7387695;19;20018;-49
2022/11/21 10:56:19;;;;;;;26.02;17.77;;;2.30;99.90;;;;;;7379328;19;20037;-46
2022/11/21 10:58:49;;;;;;;23.83;17.42;;;2.50;99.90;;;;;;7376074;19;20022;-48
2022/11/21 11:01:23;;;;;;;24.83;17.83;;;2.50;99.90;;;;;;7373387;19;20019;-45
2022/11/21 11:04:12;;;;;;;25.42;18.13;;;2.50;99.90;;;;;;7377619;19;20022;-45
2022/11/21 11:06:42;;;;;;;20.83;15.80;;;2.70;99.90;;;;;;7371930;19;20025;-49
2022/11/21 11:09:27;;;;;;;20.52;15.48;;;2.90;99.90;;;;;;7375965;19;20485;-48
2022/11/21 11:15:22;;;;;;;21.77;15.25;;;2.90;99.90;;;;;;7380267;19;20018;-48
2022/11/21 11:17:58;;;;;;;21.85;16.23;;;3.00;99.90;;;;;;7372962;19;20331;-45
2022/11/21 11:20:37;;;;;;;22.58;16.20;;;3.00;99.90;;;;;;7375951;19;20517;-46
2022/11/21 11:23:19;;;;;;;22.17;16.67;;;3.00;99.90;;;;;;7374413;19;20374;-46
2022/11/21 11:25:59;;;;;;;22.15;17.30;;;3.00;99.90;;;;;;7376121;19;20019;-50
2022/11/21 11:28:34;;;;;;;24.45;16.73;;;3.10;99.90;;;;;;7373268;19;20868;-46
2022/11/21 11:31:00;;;;;;;27.67;18.50;;;3.20;99.90;;;;;;7374167;19;21064;-47
2022/11/21 11:33:39;;;;;;;25.70;18.75;;;3.30;99.90;;;;;;7371082;19;20687;-45
2022/11/21 11:36:24;;;;;;;26.83;18.60;;;3.20;99.90;;;;;;7377562;19;20014;-46
2022/11/21 11:38:57;;;;;;;28.83;18.30;;;3.20;99.90;;;;;;7374834;19;20546;-47
2022/11/21 11:47:29;;;;;;;27.88;19.45;;;3.30;99.90;;;;;;7375781;19;20030;-50
2022/11/21 11:47:41;;;;;;;27.42;19.05;;;3.30;99.90;;;;;;7368195;19;20026;-45
2022/11/21 11:50:18;;;;;;;27.10;19.27;;;3.30;99.90;;;;;;7376445;19;20014;-45
2022/11/21 11:52:47;;;;;;;28.08;19.95;;;3.40;99.90;;;;;;7374264;19;20581;-47
2022/11/21 11:55:33;;;;;;;24.42;15.48;;;3.40;99.90;;;;;;7375779;19;20127;-45
2022/11/21 11:58:04;;;;;;;27.52;19.67;;;3.50;99.90;;;;;;7371395;19;21135;-49
2022/11/21 12:00:44;;;;;;;31.47;19.47;;;3.50;99.90;;;;;;7373486;19;20022;-46
2022/11/21 12:03:11;;;;;;;31.17;21.02;;;3.60;99.90;;;;;;7370914;19;20334;-47
2022/11/21 12:06:00;;;;;;;25.70;19.45;;;3.60;99.90;;;;;;7372688;19;20007;-49
2022/11/21 12:08:54;;;;;;;27.50;18.35;;;3.70;99.90;;;;;;7368097;19;20022;-47
2022/11/21 12:17:47;;;;;;;27.42;17.58;;;3.80;99.90;;;;;;7372677;19;20022;-46
2022/11/21 12:20:54;;;;;;;27.30;16.63;;;3.80;99.90;;;;;;7374025;19;20025;-49
2022/11/21 12:23:25;;;;;;;23.02;16.58;;;3.80;99.90;;;;;;7370747;19;20014;-48
2022/11/21 12:26:15;;;;;;;26.45;17.38;;;3.70;99.90;;;;;;7373059;19;20018;-47
2022/11/21 12:29:12;;;;;;;24.10;17.75;;;3.80;99.90;;;;;;7374797;19;20018;-45
2022/11/21 12:32:00;;;;;;;24.92;18.08;;;3.70;99.90;;;;;;7370714;19;20014;-46
2022/11/21 12:34:49;;;;;;;25.13;17.45;;;3.80;99.90;;;;;;7370813;19;20604;-47
2022/11/21 12:37:22;;;;;;;26.88;18.70;;;3.80;99.90;;;;;;7373786;19;20074;-45
2022/11/21 12:39:59;;;;;;;25.70;17.17;;;3.80;99.90;;;;;;7369881;19;20026;-48
2022/11/21 12:42:50;;;;;;;25.58;17.80;;;3.80;99.90;;;;;;7366040;19;20086;-49
2022/11/21 12:45:19;;;;;;;23.58;17.90;;;3.90;99.90;;;;;;7374225;19;20118;-50
2022/11/21 12:54:30;;;;;;;27.00;18.00;;;3.80;99.90;;;;;;7373205;19;20034;-50
2022/11/21 12:57:13;;;;;;;26.27;17.98;;;3.80;99.90;;;;;;7382468;19;20032;-49
2022/11/21 13:00:06;;;;;;;24.98;17.95;;;3.80;99.90;;;;;;7384842;19;20120;-48
2022/11/21 13:02:52;;;;;;;27.75;20.58;;;3.80;99.90;;;;;;7380593;19;20489;-52
2022/11/21 13:05:28;;;;;;;27.27;19.27;;;3.80;99.90;;;;;;7384483;19;20098;-51
2022/11/21 13:08:15;;;;;;;27.42;19.02;;;3.70;99.90;;;;;;7384872;19;20022;-49
2022/11/21 13:10:50;;;;;;;25.08;18.65;;;3.80;99.90;;;;;;7386022;19;20038;-50
2022/11/21 13:13:31;;;;;;;30.52;19.70;;;3.80;99.90;;;;;;7384842;19;20017;-52
2022/11/21 13:16:09;;;;;;;28.08;18.70;;;3.80;99.90;;;;;;7384898;19;20018;-52
2022/11/21 13:18:45;;;;;;;27.55;18.75;;;3.80;99.90;;;;;;7381183;19;20359;-51
2022/11/21 13:21:42;;;;;;;28.40;18.63;;;3.90;99.90;;;;;;7371631;19;20080;-50
2022/11/21 13:24:09;;;;;;;28.67;17.80;;;4.00;99.90;;;;;;7370686;19;20111;-50
2022/11/21 13:26:46;;;;;;;22.50;17.48;;;4.00;99.90;;;;;;7374201;19;20083;-49
2022/11/21 13:29:13;;;;;;;20.63;15.20;;;4.10;99.90;;;;;;7370886;19;20014;-49
2022/11/21 13:31:41;;;;;;;22.02;15.57;;;4.20;99.90;;;;;;7381283;19;20006;-49